createdAt,value
2018-04-06T03:30:43.727Z,3.62
2018-04-06T03:33:11.371Z,4.05
2018-04-06T03:35:39.004Z,3.95
2018-04-06T03:38:06.672Z,4.07
2018-04-06T03:40:35.061Z,4.15
2018-04-06T03:43:03.453Z,5.35
2018-04-06T03:45:31.116Z,4.32
2018-04-06T03:47:58.739Z,3.55
2018-04-06T03:50:26.365Z,4.45
2018-04-06T03:52:54.007Z,4.62
2018-04-06T03:55:21.624Z,3.90
2018-04-06T03:57:50.106Z,4.30
2018-04-06T04:00:17.725Z,4.10
2018-04-06T04:02:45.356Z,4.05
2018-04-06T04:05:13.046Z,3.75
2018-04-06T04:07:40.667Z,4.47
2018-04-06T04:10:08.298Z,3.92
2018-04-06T04:12:35.945Z,3.97
2018-04-06T04:15:03.577Z,5.00
2018-04-06T04:17:31.227Z,5.03
2018-04-06T04:19:58.856Z,5.22
2018-04-06T04:22:27.297Z,4.50
2018-04-06T04:24:54.936Z,4.87
2018-04-06T04:27:22.564Z,4.32
2018-04-06T04:29:50.232Z,4.60
2018-04-06T04:32:17.864Z,4.60
2018-04-06T04:34:46.262Z,4.65
2018-04-06T04:37:13.956Z,4.70
2018-04-06T04:39:41.626Z,4.20
2018-04-06T04:42:09.260Z,5.07
2018-04-06T04:44:36.916Z,4.05
2018-04-06T04:47:04.556Z,4.40
2018-04-06T04:49:32.972Z,4.65
2018-04-06T04:52:00.601Z,4.72
2018-04-06T04:54:28.293Z,3.95
2018-04-06T04:56:55.919Z,4.50
2018-04-06T04:59:24.316Z,5.68
2018-04-06T05:01:51.976Z,5.22
2018-04-06T05:04:19.604Z,5.15
2018-04-06T05:06:48.005Z,4.82
2018-04-06T05:09:15.668Z,4.97
2018-04-06T05:11:43.287Z,4.30
2018-04-06T05:14:10.955Z,5.37
2018-04-06T05:16:38.605Z,5.60
2018-04-06T05:19:06.224Z,5.30
2018-04-06T05:21:33.875Z,3.70
2018-04-06T05:24:01.504Z,5.30
2018-04-06T05:26:29.898Z,5.45
2018-04-06T05:28:57.656Z,5.95
2018-04-06T05:31:26.048Z,5.12
2018-04-06T05:33:53.685Z,7.03
2018-04-06T05:36:22.119Z,5.75
2018-04-06T05:38:49.779Z,5.65
2018-04-06T05:41:17.411Z,7.22
2018-04-06T05:43:45.065Z,5.93
2018-04-06T05:46:12.699Z,5.87
2018-04-06T05:48:41.119Z,5.62
2018-04-06T05:51:08.748Z,6.80
2018-04-06T05:53:37.138Z,6.80
2018-04-06T05:56:04.793Z,7.43
2018-04-06T05:58:32.421Z,6.30
2018-04-06T06:01:00.051Z,6.57
2018-04-06T06:03:27.742Z,5.40
2018-04-06T06:05:55.372Z,5.00
2018-04-06T06:08:23.001Z,5.78
2018-04-06T06:10:50.657Z,5.30
2018-04-06T06:13:18.309Z,5.28
2018-04-06T06:15:46.032Z,6.10
2018-04-06T06:18:13.722Z,4.95
2018-04-06T06:20:42.980Z,5.72
2018-04-06T06:23:10.623Z,5.90
2018-04-06T06:25:38.296Z,4.75
2018-04-06T06:28:05.944Z,4.35
2018-04-06T06:30:33.584Z,5.32
2018-04-06T06:33:01.247Z,6.40
2018-04-06T06:35:28.877Z,5.07
2018-04-06T06:37:57.277Z,5.15
2018-04-06T06:40:24.928Z,5.75
2018-04-06T06:42:53.327Z,4.85
2018-04-06T06:45:20.980Z,5.12
2018-04-06T06:47:48.612Z,4.70
2018-04-06T06:50:17.049Z,4.60
2018-04-06T06:52:44.672Z,3.72
2018-04-06T06:55:12.305Z,4.78
2018-04-06T06:57:40.732Z,4.25
2018-04-06T07:00:08.369Z,3.75
2018-04-06T07:02:36.044Z,3.55
2018-04-06T07:05:03.676Z,3.22
2018-04-06T07:07:32.073Z,3.28
2018-04-06T07:09:59.748Z,3.42
2018-04-06T07:12:27.393Z,3.05
2018-04-06T07:14:55.016Z,3.00
2018-04-06T07:17:22.682Z,3.60
2018-04-06T07:19:50.310Z,3.78
2018-04-06T07:22:17.936Z,3.62
2018-04-06T07:24:45.591Z,3.90
2018-04-06T07:27:13.220Z,3.62
2018-04-06T07:29:40.857Z,3.65
2018-04-06T07:32:08.525Z,2.80
2018-04-06T07:34:36.152Z,2.92
2018-04-06T07:37:03.772Z,3.22
2018-04-06T07:39:32.184Z,3.35
2018-04-06T07:41:59.819Z,3.25
2018-04-06T07:44:28.334Z,3.15
2018-04-06T07:46:55.905Z,4.37
2018-04-06T07:49:23.532Z,2.72
2018-04-06T07:51:51.197Z,3.00
2018-04-06T07:54:18.820Z,3.12
2018-04-06T07:56:46.448Z,3.00
2018-04-06T07:59:14.101Z,3.00
2018-04-06T08:01:41.726Z,3.17
2018-04-06T08:04:09.396Z,3.12
2018-04-06T08:06:37.025Z,3.22
2018-04-06T08:09:06.377Z,3.90
2018-04-06T08:11:34.027Z,2.97
2018-04-06T08:14:01.663Z,3.05
2018-04-06T08:16:29.312Z,3.28
2018-04-06T08:18:57.702Z,3.05
2018-04-06T08:21:25.364Z,3.80
2018-04-06T08:23:52.992Z,2.90
2018-04-06T08:26:20.664Z,3.25
2018-04-06T08:28:48.309Z,3.22
2018-04-06T08:31:15.961Z,3.95
2018-04-06T08:33:43.629Z,3.10
2018-04-06T08:36:11.263Z,2.83
2018-04-06T08:38:39.029Z,2.60
2018-04-06T08:41:06.679Z,3.20
2018-04-06T08:43:34.316Z,3.58
2018-04-06T08:46:01.992Z,3.22
2018-04-06T08:48:29.629Z,3.30
2018-04-06T08:50:57.261Z,2.28
2018-04-06T08:53:25.035Z,3.45
2018-04-06T08:55:53.430Z,2.50
2018-04-06T08:58:21.056Z,3.05
2018-04-06T09:00:48.713Z,2.70
2018-04-06T09:03:16.343Z,2.90
2018-04-06T09:05:43.964Z,2.47
2018-04-06T09:08:12.372Z,2.55
2018-04-06T09:10:39.996Z,2.40
2018-04-06T09:13:08.417Z,3.42
2018-04-06T09:15:36.037Z,2.70
2018-04-06T09:18:04.475Z,2.70
2018-04-06T09:20:32.136Z,3.80
2018-04-06T09:22:59.791Z,2.75
2018-04-06T09:25:27.420Z,3.42
2018-04-06T09:27:55.084Z,2.70
2018-04-06T09:30:22.711Z,3.78
2018-04-06T09:32:51.104Z,2.72
2018-04-06T09:35:18.753Z,3.28
2018-04-06T09:37:47.196Z,2.87
2018-04-06T09:40:15.593Z,2.37
2018-04-06T09:42:43.220Z,2.60
2018-04-06T09:45:11.645Z,2.05
2018-04-06T09:47:40.039Z,2.15
2018-04-06T09:50:07.670Z,2.50
2018-04-06T09:52:35.320Z,2.00
2018-04-06T09:55:02.945Z,1.80
2018-04-06T09:57:30.628Z,2.00
2018-04-06T09:59:58.260Z,2.42
2018-04-06T10:02:25.884Z,2.65
2018-04-06T10:04:54.314Z,2.35
2018-04-06T10:07:21.942Z,2.03
2018-04-06T10:09:49.570Z,1.95
2018-04-06T10:12:18.016Z,2.30
2018-04-06T10:14:45.648Z,1.73
2018-04-06T10:17:13.273Z,2.00
2018-04-06T10:19:41.701Z,2.20
2018-04-06T10:22:09.339Z,2.90
2018-04-06T10:24:36.964Z,2.28
2018-04-06T10:27:04.617Z,1.80
2018-04-06T10:29:32.283Z,1.95
2018-04-06T10:31:59.908Z,1.65
2018-04-06T10:34:27.532Z,1.55
2018-04-06T10:36:55.208Z,1.55
2018-04-06T10:39:22.836Z,1.65
2018-04-06T10:41:51.220Z,1.40
2018-04-06T10:44:19.656Z,1.60
2018-04-06T10:46:48.110Z,1.55
2018-04-06T10:49:15.712Z,1.37
2018-04-06T10:51:43.378Z,1.58
2018-04-06T10:54:11.013Z,1.85
2018-04-06T10:56:38.640Z,1.73
2018-04-06T10:59:06.411Z,1.80
2018-04-06T11:01:34.036Z,1.80
2018-04-06T11:04:02.430Z,1.92
2018-04-06T11:06:30.088Z,1.45
2018-04-06T11:08:57.869Z,1.73
2018-04-06T11:11:25.492Z,1.55
2018-04-06T11:13:53.888Z,1.85
2018-04-06T11:16:21.601Z,2.05
2018-04-06T11:18:49.233Z,1.40
2018-04-06T11:21:16.867Z,2.00
2018-04-06T11:23:45.275Z,1.90
2018-04-06T11:26:12.906Z,1.67
2018-04-06T11:28:40.572Z,1.73
2018-04-06T11:31:08.196Z,1.83
2018-04-06T11:33:35.824Z,2.25
2018-04-06T11:36:03.496Z,1.60
2018-04-06T11:38:31.956Z,1.50
2018-04-06T11:40:59.588Z,2.37
2018-04-06T11:43:27.252Z,1.98
2018-04-06T11:45:54.875Z,1.50
2018-04-06T11:48:22.505Z,1.40
2018-04-06T11:50:50.147Z,1.37
2018-04-06T11:53:17.792Z,1.98
2018-04-06T11:55:45.465Z,1.87
2018-04-06T11:58:13.092Z,2.00
2018-04-06T12:00:41.485Z,1.85
2018-04-06T12:03:09.147Z,1.73
2018-04-06T12:05:36.777Z,1.42
2018-04-06T12:08:04.407Z,1.90
2018-04-06T12:10:32.074Z,1.98
2018-04-06T12:12:59.705Z,1.90
2018-04-06T12:15:27.323Z,1.55
2018-04-06T12:17:54.996Z,1.50
2018-04-06T12:20:23.393Z,1.20
2018-04-06T12:22:51.012Z,1.30
2018-04-06T12:25:18.666Z,1.33
2018-04-06T12:27:46.341Z,1.65
2018-04-06T12:30:13.966Z,1.62
2018-04-06T12:32:41.598Z,1.70
2018-04-06T12:35:09.281Z,1.60
2018-04-06T12:37:36.959Z,2.20
2018-04-06T12:40:04.844Z,1.95
2018-04-06T12:42:32.504Z,1.80
2018-04-06T12:45:00.130Z,2.17
2018-04-06T12:47:27.756Z,1.92
2018-04-06T12:49:55.402Z,1.58
2018-04-06T12:52:23.797Z,2.30
2018-04-06T12:54:51.424Z,2.12
2018-04-06T12:57:19.100Z,2.30
2018-04-06T12:59:47.504Z,1.75
2018-04-06T13:02:15.132Z,1.50
2018-04-06T13:04:43.556Z,1.73
2018-04-06T13:07:11.172Z,2.00
2018-04-06T13:09:39.621Z,2.15
2018-04-06T13:12:07.256Z,2.37
2018-04-06T13:14:34.884Z,1.83
2018-04-06T13:17:02.597Z,1.70
2018-04-06T13:19:30.232Z,1.58
2018-04-06T13:21:57.867Z,1.70
2018-04-06T13:24:25.538Z,1.80
2018-04-06T13:26:53.173Z,1.90
2018-04-06T13:29:21.569Z,1.85
2018-04-06T13:31:49.228Z,1.50
2018-04-06T13:34:16.861Z,1.50
2018-04-06T13:36:44.537Z,1.92
2018-04-06T13:39:12.932Z,2.08
2018-04-06T13:41:40.562Z,1.95
2018-04-06T13:44:08.220Z,1.87
2018-04-06T13:46:35.941Z,1.30
2018-04-06T13:49:03.552Z,1.65
2018-04-06T13:51:31.948Z,1.60
2018-04-06T13:53:59.621Z,1.87
2018-04-06T13:56:27.249Z,1.52
2018-04-06T13:58:55.645Z,2.00
2018-04-06T14:01:23.301Z,2.03
2018-04-06T14:03:51.705Z,1.35
2018-04-06T14:06:19.337Z,1.70
2018-04-06T14:08:47.756Z,1.50
2018-04-06T14:11:15.381Z,1.45
2018-04-06T14:13:43.035Z,1.80
2018-04-06T14:16:11.433Z,1.87
2018-04-06T14:18:39.113Z,1.40
2018-04-06T14:21:06.749Z,1.10
2018-04-06T14:23:34.377Z,1.85
2018-04-06T14:26:02.816Z,1.52
2018-04-06T14:28:30.446Z,1.87
2018-04-06T14:30:58.075Z,1.35
2018-04-06T14:33:26.527Z,1.30
2018-04-06T14:35:54.156Z,1.62
2018-04-06T14:38:21.793Z,2.80
2018-04-06T14:40:50.228Z,1.65
2018-04-06T14:43:17.859Z,1.90
2018-04-06T14:45:45.500Z,1.70
2018-04-06T14:48:13.158Z,2.28
2018-04-06T14:50:40.783Z,1.70
2018-04-06T14:53:08.428Z,1.60
2018-04-06T14:55:36.096Z,1.77
2018-04-06T14:58:03.720Z,2.17
2018-04-06T15:00:31.353Z,1.92
2018-04-06T15:02:59.027Z,1.40
2018-04-06T15:05:26.664Z,1.50
2018-04-06T15:07:55.089Z,2.28
2018-04-06T15:10:22.740Z,1.33
2018-04-06T15:12:50.377Z,2.30
2018-04-06T15:15:18.071Z,1.60
2018-04-06T15:17:45.705Z,1.60
2018-04-06T15:20:13.357Z,1.70
2018-04-06T15:22:41.029Z,1.60
2018-04-06T15:25:08.668Z,1.67
2018-04-06T15:27:37.060Z,1.60
2018-04-06T15:30:04.970Z,1.48
2018-04-06T15:32:32.604Z,2.17
2018-04-06T15:35:00.231Z,1.90
2018-04-06T15:37:28.658Z,1.90
2018-04-06T15:39:56.292Z,2.30
2018-04-06T15:42:24.065Z,2.15
2018-04-06T15:44:51.729Z,2.55
2018-04-06T15:47:19.361Z,3.87
2018-04-06T15:49:47.043Z,11.25
2018-04-06T15:52:14.671Z,3.90
2018-04-06T15:54:43.063Z,2.60
2018-04-06T15:57:10.713Z,2.87
2018-04-06T15:59:39.112Z,2.00
2018-04-06T16:02:06.769Z,2.55
2018-04-06T16:04:34.431Z,2.72
2018-04-06T16:07:02.061Z,2.10
2018-04-06T16:09:30.501Z,2.50
2018-04-06T16:11:58.135Z,2.12
2018-04-06T16:14:25.768Z,1.95
2018-04-06T16:16:54.200Z,2.45
2018-04-06T16:19:21.840Z,2.53
2018-04-06T16:21:49.481Z,2.53
2018-04-06T16:24:17.140Z,2.28
2018-04-06T16:26:44.777Z,2.10
2018-04-06T16:29:13.216Z,2.10
2018-04-06T16:31:40.884Z,2.30
2018-04-06T16:34:08.516Z,2.15
2018-04-06T16:36:36.143Z,2.12
2018-04-06T16:39:04.571Z,2.30
2018-04-06T16:41:32.229Z,2.45
2018-04-06T16:43:59.881Z,2.03
2018-04-06T16:46:27.512Z,1.50
2018-04-06T16:48:55.942Z,2.20
2018-04-06T16:51:23.572Z,2.00
2018-04-06T16:53:51.252Z,1.50
2018-04-06T16:56:18.889Z,1.60
2018-04-06T16:58:46.557Z,1.70
2018-04-06T17:01:14.229Z,2.05
2018-04-06T17:03:41.870Z,27.37
2018-04-06T17:06:09.505Z,8.70
2018-04-06T17:08:37.942Z,6.50
2018-04-06T17:11:05.594Z,5.62
2018-04-06T17:13:33.220Z,2.62
2018-04-06T17:16:00.889Z,2.87
2018-04-06T17:18:28.520Z,3.05
2018-04-06T17:20:56.915Z,2.40
2018-04-06T17:23:24.556Z,2.42
2018-04-06T17:25:52.940Z,3.15
2018-04-06T17:28:21.368Z,1.90
2018-04-06T17:30:48.993Z,2.67
2018-04-06T17:33:16.625Z,2.15
2018-04-06T17:35:45.059Z,2.45
2018-04-06T17:38:12.685Z,2.25
2018-04-06T17:40:41.077Z,2.15
2018-04-06T17:43:08.728Z,2.25
2018-04-06T17:45:36.357Z,2.90
2018-04-06T17:48:03.992Z,2.67
2018-04-06T17:50:31.642Z,2.50
2018-04-06T17:52:59.319Z,3.22
2018-04-06T17:55:26.944Z,2.22
2018-04-06T17:57:54.604Z,2.78
2018-04-06T18:00:22.281Z,2.03
2018-04-06T18:02:49.920Z,2.35
2018-04-06T18:05:18.830Z,2.60
2018-04-06T18:07:46.499Z,2.95
2018-04-06T18:10:14.900Z,3.12
2018-04-06T18:12:42.537Z,2.87
2018-04-06T18:15:10.189Z,3.65
2018-04-06T18:17:37.820Z,3.72
2018-04-06T18:20:06.633Z,4.12
2018-04-06T18:22:34.292Z,3.25
2018-04-06T18:25:01.964Z,3.15
2018-04-06T18:27:29.616Z,3.78
2018-04-06T18:29:57.240Z,2.90
2018-04-06T18:32:24.923Z,3.85
2018-04-06T18:34:52.552Z,4.07
2018-04-06T18:37:20.951Z,3.40
2018-04-06T18:39:48.644Z,3.75
2018-04-06T18:42:16.310Z,3.30
2018-04-06T18:44:43.968Z,3.45
2018-04-06T18:47:11.632Z,3.65
2018-04-06T18:49:40.519Z,3.65
2018-04-06T18:52:11.286Z,3.72
2018-04-06T18:54:39.693Z,3.70
2018-04-06T18:57:07.334Z,3.45
2018-04-06T18:59:35.865Z,3.20
2018-04-06T19:02:03.491Z,4.43
2018-04-06T19:04:31.119Z,4.15
2018-04-06T19:06:58.772Z,3.67
2018-04-06T19:09:26.406Z,4.10
2018-04-06T19:11:54.057Z,4.30
2018-04-06T19:14:21.689Z,4.60
2018-04-06T19:16:49.312Z,4.30
2018-04-06T19:19:16.976Z,4.32
2018-04-06T19:21:44.606Z,6.15
2018-04-06T19:24:12.239Z,3.90
2018-04-06T19:26:39.926Z,6.62
2018-04-06T19:29:07.565Z,11.57
2018-04-06T19:31:35.196Z,7.70
2018-04-06T19:34:03.608Z,6.10
2018-04-06T19:36:31.280Z,6.32
2018-04-06T19:38:58.909Z,6.50
2018-04-06T19:41:26.563Z,6.93
2018-04-06T19:43:54.211Z,6.97
2018-04-06T19:46:22.628Z,6.10
2018-04-06T19:48:50.261Z,6.30
2018-04-06T19:51:18.689Z,5.70
2018-04-06T19:53:46.352Z,7.00
2018-04-06T19:56:13.992Z,6.50
2018-04-06T19:58:41.620Z,7.15
2018-04-06T20:01:11.324Z,7.07
2018-04-06T20:03:39.072Z,6.78
2018-04-06T20:06:06.720Z,6.85
2018-04-06T20:08:34.372Z,6.50
2018-04-06T20:11:02.003Z,7.00
2018-04-06T20:13:29.632Z,5.87
2018-04-06T20:15:57.281Z,5.85
2018-04-06T20:18:25.673Z,6.50
2018-04-06T20:20:53.344Z,6.45
2018-04-06T20:23:20.976Z,6.62
2018-04-06T20:25:49.593Z,6.18
2018-04-06T20:28:17.271Z,7.45
2018-04-06T20:30:45.684Z,6.62
2018-04-06T20:33:13.312Z,6.60
2018-04-06T20:35:40.960Z,5.80
2018-04-06T20:38:08.587Z,5.80
2018-04-06T20:40:36.991Z,6.82
2018-04-06T20:43:04.668Z,6.28
2018-04-06T20:45:32.292Z,6.10
2018-04-06T20:47:59.927Z,6.18
2018-04-06T20:50:27.607Z,6.68
2018-04-06T20:52:56.000Z,6.32
2018-04-06T20:55:23.632Z,6.20
2018-04-06T20:57:52.169Z,6.28
2018-04-06T21:00:19.796Z,6.37
2018-04-06T21:02:47.430Z,5.60
2018-04-06T21:05:15.120Z,6.15
2018-04-06T21:07:42.744Z,5.72
2018-04-06T21:10:10.372Z,5.40
2018-04-06T21:12:38.021Z,6.07
2018-04-06T21:15:05.661Z,5.30
2018-04-06T21:17:33.336Z,6.00
2018-04-06T21:20:00.969Z,6.35
2018-04-06T21:22:29.360Z,5.45
2018-04-06T21:24:57.031Z,6.18
2018-04-06T21:27:24.656Z,5.80
2018-04-06T21:29:53.199Z,5.90
2018-04-06T21:32:20.893Z,6.55
2018-04-06T21:34:48.524Z,5.55
2018-04-06T21:37:16.969Z,5.32
2018-04-06T21:39:44.601Z,5.70
2018-04-06T21:42:13.035Z,5.53
2018-04-06T21:44:40.722Z,6.53
2018-04-06T21:47:08.347Z,5.00
2018-04-06T21:49:35.973Z,5.85
2018-04-06T21:52:03.656Z,6.65
2018-04-06T21:54:31.288Z,5.22
2018-04-06T21:56:58.952Z,5.90
2018-04-06T21:59:27.373Z,5.28
2018-04-06T22:01:55.001Z,4.75
2018-04-06T22:04:22.648Z,4.40
2018-04-06T22:06:51.040Z,5.25
2018-04-06T22:09:18.668Z,6.30
2018-04-06T22:11:46.344Z,6.43
2018-04-06T22:14:14.736Z,7.78
2018-04-06T22:16:42.413Z,8.32
2018-04-06T22:19:10.044Z,7.30
2018-04-06T22:21:38.440Z,8.38
2018-04-06T22:24:06.104Z,8.50
2018-04-06T22:26:33.785Z,7.75
2018-04-06T22:29:01.407Z,7.45
